createdAt,value
2023-01-29T00:01:18.929Z,96676.56
2023-01-29T00:03:45.491Z,96679.22
2023-01-29T00:06:12.774Z,96671.00
2023-01-29T00:08:39.611Z,96682.09
2023-01-29T00:11:07.108Z,96672.84
2023-01-29T00:13:34.564Z,96669.59
2023-01-29T00:16:01.574Z,96680.03
2023-01-29T00:18:29.179Z,96676.47
2023-01-29T00:20:55.721Z,96675.19
2023-01-29T00:23:22.633Z,96680.78
2023-01-29T00:25:49.052Z,96677.19
2023-01-29T00:28:15.918Z,96678.38
2023-01-29T00:30:43.183Z,96670.19
2023-01-29T00:33:11.796Z,96666.78
2023-01-29T00:35:39.399Z,96670.84
2023-01-29T00:38:05.818Z,96679.53
2023-01-29T00:40:52.323Z,96682.84
2023-01-29T00:43:37.474Z,96678.22
2023-01-29T00:46:06.455Z,96675.72
2023-01-29T00:48:34.104Z,96683.25
2023-01-29T00:51:00.933Z,96675.88
2023-01-29T00:53:27.372Z,96667.19
2023-01-29T00:55:53.796Z,96673.06
2023-01-29T00:58:22.464Z,96664.69
2023-01-29T01:00:49.385Z,96662.13
2023-01-29T01:03:16.230Z,96663.09
2023-01-29T01:05:42.997Z,96662.81
2023-01-29T01:08:28.708Z,96664.78
2023-01-29T01:11:02.997Z,96669.25
2023-01-29T01:13:31.092Z,96660.75
2023-01-29T01:15:57.566Z,96673.31
2023-01-29T01:18:24.038Z,96670.66
2023-01-29T01:20:51.634Z,96670.00
2023-01-29T01:23:19.384Z,96663.53
2023-01-29T01:25:46.505Z,96670.00
2023-01-29T01:28:12.987Z,96672.50
2023-01-29T01:30:39.430Z,96664.13
2023-01-29T01:33:05.914Z,96672.56
2023-01-29T01:35:32.485Z,96665.88
2023-01-29T01:37:58.921Z,96660.41
2023-01-29T01:40:26.368Z,96666.66
2023-01-29T01:43:02.178Z,96667.00
2023-01-29T01:45:35.767Z,96659.06
2023-01-29T01:48:05.517Z,96652.91
2023-01-29T01:50:42.732Z,96649.66
2023-01-29T01:53:11.657Z,96638.38
2023-01-29T01:55:41.792Z,96635.78
2023-01-29T01:58:15.711Z,96635.63
2023-01-29T02:00:42.595Z,96643.59
2023-01-29T02:03:29.143Z,96639.09
2023-01-29T02:06:17.299Z,96641.69
2023-01-29T02:09:14.749Z,96638.50
2023-01-29T02:11:41.189Z,96640.06
2023-01-29T02:14:08.085Z,96636.91
2023-01-29T02:16:35.615Z,96644.16
2023-01-29T02:19:05.283Z,96644.31
2023-01-29T02:21:37.707Z,96646.13
2023-01-29T02:24:04.202Z,96654.72
2023-01-29T02:26:39.904Z,96649.88
2023-01-29T02:29:23.153Z,96650.56
2023-01-29T02:31:54.206Z,96649.06
2023-01-29T02:34:20.748Z,96647.09
2023-01-29T02:36:53.617Z,96657.53
2023-01-29T02:39:36.450Z,96653.44
2023-01-29T02:42:12.252Z,96653.22
2023-01-29T02:44:42.192Z,96649.91
2023-01-29T02:47:27.174Z,96657.22
2023-01-29T02:50:04.199Z,96653.38
2023-01-29T02:52:49.631Z,96667.25
2023-01-29T02:55:29.277Z,96667.34
2023-01-29T02:58:01.019Z,96660.63
2023-01-29T03:00:30.060Z,96664.06
2023-01-29T03:03:03.801Z,96665.72
2023-01-29T03:05:44.780Z,96672.06
2023-01-29T03:08:16.003Z,96668.19
2023-01-29T03:11:02.750Z,96670.03
2023-01-29T03:13:34.532Z,96670.25
2023-01-29T03:16:19.773Z,96662.97
2023-01-29T03:18:53.854Z,96670.41
2023-01-29T03:21:46.553Z,96666.28
2023-01-29T03:24:33.771Z,96660.00
2023-01-29T03:27:21.255Z,96657.50
2023-01-29T03:30:09.007Z,96662.63
2023-01-29T03:32:48.805Z,96657.06
2023-01-29T03:35:21.026Z,96649.44
2023-01-29T03:37:48.862Z,96648.75
2023-01-29T03:40:15.823Z,96648.13
2023-01-29T03:43:02.070Z,96646.13
2023-01-29T03:45:43.169Z,96650.38
2023-01-29T03:48:10.433Z,96655.63
2023-01-29T03:50:42.232Z,96655.56
2023-01-29T03:53:17.008Z,96658.06
2023-01-29T03:55:49.444Z,96657.16
2023-01-29T03:58:31.052Z,96654.59
2023-01-29T04:01:21.269Z,96651.28
2023-01-29T04:03:50.197Z,96654.09
2023-01-29T04:06:18.608Z,96660.00
2023-01-29T04:09:02.319Z,96658.53
2023-01-29T04:11:29.778Z,96656.94
2023-01-29T04:13:57.214Z,96660.13
2023-01-29T04:16:38.418Z,96663.00
2023-01-29T04:19:43.780Z,96657.38
2023-01-29T04:22:14.028Z,96653.75
2023-01-29T04:24:41.228Z,96667.25
2023-01-29T04:27:25.844Z,96659.84
2023-01-29T04:30:13.324Z,96655.84
2023-01-29T04:32:53.708Z,96659.19
2023-01-29T04:35:24.211Z,96651.00
2023-01-29T04:37:57.112Z,96660.53
2023-01-29T04:40:31.793Z,96662.25
2023-01-29T04:43:17.169Z,96655.56
2023-01-29T04:45:55.771Z,96657.53
2023-01-29T04:48:25.676Z,96658.22
2023-01-29T04:50:52.198Z,96657.50
2023-01-29T04:53:23.780Z,96658.91
2023-01-29T04:55:52.880Z,96656.59
2023-01-29T04:58:22.317Z,96655.00
2023-01-29T05:00:50.339Z,96648.97
2023-01-29T05:03:17.112Z,96653.13
2023-01-29T05:05:48.106Z,96657.22
2023-01-29T05:08:17.159Z,96663.19
2023-01-29T05:10:44.591Z,96665.13
2023-01-29T05:13:13.312Z,96654.50
2023-01-29T05:15:42.420Z,96653.66
2023-01-29T05:18:09.114Z,96648.19
2023-01-29T05:20:39.853Z,96648.78
2023-01-29T05:23:26.514Z,96650.88
2023-01-29T05:25:52.991Z,96663.78
2023-01-29T05:28:19.415Z,96658.81
2023-01-29T05:30:50.596Z,96655.69
2023-01-29T05:33:19.083Z,96663.94
2023-01-29T05:35:45.982Z,96652.09
2023-01-29T05:38:12.728Z,96659.91
2023-01-29T05:40:39.169Z,96656.38
2023-01-29T05:43:05.844Z,96652.84
2023-01-29T05:45:32.879Z,96660.53
2023-01-29T05:48:00.044Z,96658.94
2023-01-29T05:50:27.528Z,96655.47
2023-01-29T05:53:00.823Z,96659.84
2023-01-29T05:55:29.354Z,96668.63
2023-01-29T05:57:56.049Z,96672.06
2023-01-29T06:00:22.562Z,96665.25
2023-01-29T06:02:49.259Z,96664.16
2023-01-29T06:05:15.686Z,96659.84
2023-01-29T06:07:45.229Z,96666.19
2023-01-29T06:10:13.467Z,96657.19
2023-01-29T06:12:40.260Z,96660.31
2023-01-29T06:15:07.336Z,96647.69
2023-01-29T06:17:33.739Z,96635.44
2023-01-29T06:20:00.184Z,96623.28
2023-01-29T06:22:26.592Z,96623.28
2023-01-29T06:24:53.113Z,96629.16
2023-01-29T06:27:19.508Z,96622.81
2023-01-29T06:29:45.913Z,96628.78
2023-01-29T06:32:12.375Z,96636.63
2023-01-29T06:34:38.916Z,96636.56
2023-01-29T06:37:05.444Z,96641.69
2023-01-29T06:39:31.877Z,96642.78
2023-01-29T06:41:58.323Z,96653.94
2023-01-29T06:44:24.731Z,96651.22
2023-01-29T06:46:51.157Z,96650.91
2023-01-29T06:49:17.572Z,96649.06
2023-01-29T06:51:44.010Z,96646.97
2023-01-29T06:54:10.576Z,96647.19
2023-01-29T06:56:37.027Z,96651.03
2023-01-29T06:59:03.479Z,96661.91
2023-01-29T07:01:36.184Z,96655.41
2023-01-29T07:04:03.417Z,96656.59
2023-01-29T07:06:30.576Z,96660.91
2023-01-29T07:08:57.504Z,96671.47
2023-01-29T07:11:23.925Z,96678.63
2023-01-29T07:13:50.377Z,96664.19
2023-01-29T07:16:17.059Z,96657.22
2023-01-29T07:18:43.513Z,96667.63
2023-01-29T07:21:09.944Z,96675.94
2023-01-29T07:23:36.506Z,96674.88
2023-01-29T07:26:06.460Z,96677.38
2023-01-29T07:28:35.966Z,96678.56
2023-01-29T07:31:02.451Z,96678.19
2023-01-29T07:33:28.905Z,96683.88
2023-01-29T07:35:55.376Z,96680.03
2023-01-29T07:38:22.024Z,96688.00
2023-01-29T07:40:48.944Z,96686.41
2023-01-29T07:43:16.237Z,96683.84
2023-01-29T07:45:42.714Z,96685.44
2023-01-29T07:48:11.003Z,96680.59
2023-01-29T07:50:37.911Z,96681.66
2023-01-29T07:53:04.405Z,96679.16
2023-01-29T07:55:31.332Z,96686.22
2023-01-29T07:57:58.563Z,96694.03
2023-01-29T08:00:25.132Z,96705.56
2023-01-29T08:02:51.525Z,96702.63
2023-01-29T08:05:17.981Z,96698.66
2023-01-29T08:07:49.229Z,96714.63
2023-01-29T08:10:20.725Z,96712.44
2023-01-29T08:12:47.315Z,96718.72
2023-01-29T08:15:13.729Z,96721.38
2023-01-29T08:20:26.670Z,96727.78
2023-01-29T08:23:03.075Z,96726.59
2023-01-29T08:25:30.072Z,96727.44
2023-01-29T08:27:57.788Z,96730.06
2023-01-29T08:30:25.517Z,96724.97
2023-01-29T08:32:52.036Z,96720.75
2023-01-29T08:35:18.769Z,96720.16
2023-01-29T08:37:52.116Z,96716.28
2023-01-29T08:40:18.851Z,96712.00
2023-01-29T08:42:45.429Z,96710.28
2023-01-29T08:45:11.859Z,96714.66
2023-01-29T08:47:38.299Z,96711.31
2023-01-29T08:50:04.937Z,96713.47
2023-01-29T08:52:31.650Z,96713.03
2023-01-29T08:54:58.092Z,96720.53
2023-01-29T08:57:24.515Z,96722.94
2023-01-29T08:59:50.926Z,96729.75
2023-01-29T09:02:17.389Z,96732.63
2023-01-29T09:04:43.842Z,96735.03
2023-01-29T09:07:10.305Z,96739.97
2023-01-29T09:09:38.316Z,96736.00
2023-01-29T09:12:04.877Z,96736.19
2023-01-29T09:14:32.803Z,96741.28
2023-01-29T09:16:59.280Z,96738.91
2023-01-29T09:19:25.766Z,96745.03
2023-01-29T09:21:52.126Z,96740.97
2023-01-29T09:24:18.525Z,96746.13
2023-01-29T09:26:44.947Z,96741.00
2023-01-29T09:29:11.564Z,96746.19
2023-01-29T09:31:38.074Z,96753.84
2023-01-29T09:34:04.625Z,96750.16
2023-01-29T09:36:31.138Z,96750.84
2023-01-29T09:38:57.837Z,96758.06
2023-01-29T09:41:24.191Z,96757.38
2023-01-29T09:44:00.970Z,96763.34
2023-01-29T09:46:33.323Z,96741.38
2023-01-29T09:49:07.255Z,96746.22
2023-01-29T09:51:37.697Z,96753.47
2023-01-29T09:54:11.805Z,96751.50
2023-01-29T09:56:38.363Z,96753.81
2023-01-29T09:59:04.839Z,96744.47
2023-01-29T10:01:34.407Z,96750.50
2023-01-29T10:04:07.543Z,96739.91
2023-01-29T10:06:52.914Z,96748.66
2023-01-29T10:09:22.387Z,96742.47
2023-01-29T10:12:00.692Z,96730.31
2023-01-29T10:14:37.995Z,96723.53
2023-01-29T10:17:04.439Z,96719.66
2023-01-29T10:19:49.351Z,96719.19
2023-01-29T10:22:28.123Z,96716.44
2023-01-29T10:24:57.873Z,96713.13
2023-01-29T10:27:29.433Z,96699.53
2023-01-29T10:29:56.371Z,96692.69
2023-01-29T10:32:25.382Z,96683.31
2023-01-29T10:35:15.434Z,96683.84
2023-01-29T10:37:42.614Z,96681.91
2023-01-29T10:40:29.264Z,96673.00
2023-01-29T10:43:02.297Z,96679.66
2023-01-29T10:45:38.896Z,96673.22
2023-01-29T10:48:20.830Z,96672.81
2023-01-29T10:50:50.652Z,96674.47
2023-01-29T10:53:32.189Z,96676.81
2023-01-29T10:56:10.699Z,96691.22
2023-01-29T10:58:51.950Z,96688.13
2023-01-29T11:01:18.421Z,96694.09
2023-01-29T11:03:44.989Z,96700.22
2023-01-29T11:06:25.360Z,96690.84
2023-01-29T11:08:57.611Z,96689.91
2023-01-29T11:11:45.084Z,96678.94
2023-01-29T11:14:16.642Z,96674.34
2023-01-29T11:16:44.760Z,96674.25
2023-01-29T11:19:11.617Z,96675.03
2023-01-29T11:21:51.111Z,96667.69
2023-01-29T11:24:18.689Z,96670.13
2023-01-29T11:26:47.213Z,96655.53
2023-01-29T11:29:33.947Z,96648.63
2023-01-29T11:32:02.313Z,96649.00
2023-01-29T11:34:29.234Z,96656.53
2023-01-29T11:37:00.149Z,96663.94
2023-01-29T11:39:27.865Z,96661.91
2023-01-29T11:42:17.314Z,96662.03
2023-01-29T11:44:43.743Z,96660.97
2023-01-29T11:47:18.611Z,96665.13
2023-01-29T11:49:46.720Z,96658.19
2023-01-29T11:52:14.906Z,96653.56
2023-01-29T11:54:54.557Z,96659.59
2023-01-29T11:57:20.979Z,96660.47
2023-01-29T11:59:50.340Z,96654.00
2023-01-29T12:02:22.836Z,96660.56
2023-01-29T12:04:49.999Z,96653.22
2023-01-29T12:07:17.823Z,96652.28
2023-01-29T12:09:52.501Z,96650.19
2023-01-29T12:12:28.781Z,96643.94
2023-01-29T12:15:16.169Z,96637.78
2023-01-29T12:17:45.282Z,96633.34
2023-01-29T12:20:15.271Z,96634.00
2023-01-29T12:23:14.548Z,96637.03
2023-01-29T12:25:56.589Z,96628.63
2023-01-29T12:28:30.405Z,96618.72
2023-01-29T12:30:59.847Z,96619.56
2023-01-29T12:33:38.676Z,96624.63
2023-01-29T12:36:11.120Z,96615.69
2023-01-29T12:38:37.687Z,96611.38
2023-01-29T12:41:07.597Z,96601.25
2023-01-29T12:43:44.580Z,96602.38
2023-01-29T12:46:18.727Z,96586.72
2023-01-29T12:48:46.252Z,96575.28
2023-01-29T12:51:18.652Z,96567.97
2023-01-29T12:53:48.729Z,96565.22
2023-01-29T12:56:20.631Z,96552.91
2023-01-29T12:58:52.640Z,96546.22
2023-01-29T13:01:37.089Z,96549.09
2023-01-29T13:04:06.695Z,96545.56
2023-01-29T13:06:41.428Z,96542.16
2023-01-29T13:09:16.969Z,96533.13
2023-01-29T13:11:48.703Z,96527.69
2023-01-29T13:14:28.845Z,96519.78
2023-01-29T13:17:01.221Z,96510.88
2023-01-29T13:19:40.172Z,96512.91
2023-01-29T13:22:13.913Z,96508.03
2023-01-29T13:24:41.069Z,96498.25
2023-01-29T13:27:12.599Z,96497.09
2023-01-29T13:29:39.139Z,96492.69
2023-01-29T13:32:05.756Z,96498.16
2023-01-29T13:34:32.175Z,96490.28
2023-01-29T13:37:00.794Z,96487.50
2023-01-29T13:39:29.541Z,96484.13
2023-01-29T13:41:56.914Z,96484.28
2023-01-29T13:44:26.116Z,96484.28
2023-01-29T13:47:07.553Z,96484.44
2023-01-29T13:49:37.229Z,96484.19
2023-01-29T13:52:14.984Z,96494.84
2023-01-29T13:54:48.948Z,96489.50
2023-01-29T13:57:34.232Z,96482.63
2023-01-29T14:00:00.651Z,96498.53
2023-01-29T14:02:28.489Z,96498.56
2023-01-29T14:05:13.809Z,96492.81
2023-01-29T14:07:43.342Z,96508.06
2023-01-29T14:10:14.519Z,96510.81
2023-01-29T14:12:41.502Z,96513.75
2023-01-29T14:15:20.961Z,96517.28
2023-01-29T14:18:14.539Z,96510.41
2023-01-29T14:20:50.723Z,96514.59
2023-01-29T14:23:32.544Z,96517.16
2023-01-29T14:26:00.758Z,96517.16
2023-01-29T14:28:29.728Z,96514.97
2023-01-29T14:30:56.281Z,96526.94
2023-01-29T14:33:33.927Z,96517.91
2023-01-29T14:36:04.007Z,96528.25
2023-01-29T14:38:31.848Z,96524.75
2023-01-29T14:41:08.575Z,96530.78
2023-01-29T14:43:35.015Z,96525.59
2023-01-29T14:46:39.684Z,96535.50
2023-01-29T14:49:07.618Z,96537.81
2023-01-29T14:51:36.444Z,96530.00
2023-01-29T14:54:06.034Z,96537.88
2023-01-29T14:56:34.688Z,96534.59
2023-01-29T14:59:19.887Z,96530.38
2023-01-29T15:01:48.260Z,96528.09
2023-01-29T15:04:24.789Z,96530.19
2023-01-29T15:06:55.176Z,96530.09
2023-01-29T15:09:41.796Z,96526.34
2023-01-29T15:12:20.369Z,96522.53
2023-01-29T15:14:56.887Z,96520.41
2023-01-29T15:17:28.868Z,96521.56
2023-01-29T15:19:56.708Z,96533.50
2023-01-29T15:22:25.963Z,96530.22
2023-01-29T15:25:03.298Z,96528.06
2023-01-29T15:27:30.924Z,96514.47
2023-01-29T15:29:59.120Z,96512.41
2023-01-29T15:32:28.191Z,96519.22
2023-01-29T15:34:55.817Z,96526.34
2023-01-29T15:37:26.669Z,96531.22
2023-01-29T15:39:53.251Z,96517.44
2023-01-29T15:42:21.729Z,96519.75
2023-01-29T15:44:48.224Z,96524.47
2023-01-29T15:47:15.367Z,96524.41
2023-01-29T15:49:42.169Z,96522.13
2023-01-29T15:52:15.876Z,96509.53
2023-01-29T15:54:43.339Z,96510.94
2023-01-29T15:57:18.583Z,96508.56
2023-01-29T15:59:45.567Z,96506.00
2023-01-29T16:02:19.478Z,96511.47
2023-01-29T16:04:46.281Z,96512.84
2023-01-29T16:07:12.980Z,96509.03
2023-01-29T16:09:39.564Z,96509.22
2023-01-29T16:12:10.937Z,96501.56
2023-01-29T16:14:37.907Z,96520.72
2023-01-29T16:17:23.192Z,96523.66
2023-01-29T16:20:00.316Z,96521.91
2023-01-29T16:22:30.819Z,96519.66
2023-01-29T16:24:58.496Z,96514.50
2023-01-29T16:27:25.033Z,96510.31
2023-01-29T16:29:51.779Z,96499.16
2023-01-29T16:32:20.077Z,96493.47
2023-01-29T16:34:52.048Z,96500.97
2023-01-29T16:37:32.700Z,96494.19
2023-01-29T16:39:59.349Z,96493.94
2023-01-29T16:42:32.253Z,96499.06
2023-01-29T16:45:02.934Z,96505.56
2023-01-29T16:47:36.901Z,96502.91
2023-01-29T16:50:22.244Z,96512.22
2023-01-29T16:52:57.690Z,96512.13
2023-01-29T16:55:25.494Z,96504.13
2023-01-29T16:57:53.754Z,96506.34
2023-01-29T17:00:23.015Z,96505.38
2023-01-29T17:02:50.686Z,96515.03
2023-01-29T17:05:22.300Z,96518.56
2023-01-29T17:07:49.138Z,96510.88
2023-01-29T17:10:17.882Z,96510.44
2023-01-29T17:12:49.571Z,96516.72
2023-01-29T17:15:33.115Z,96522.88
2023-01-29T17:17:59.853Z,96515.34
2023-01-29T17:20:27.003Z,96518.19
2023-01-29T17:22:54.240Z,96522.84
2023-01-29T17:25:21.902Z,96534.06
2023-01-29T17:27:51.677Z,96526.09
2023-01-29T17:30:20.595Z,96528.81
2023-01-29T17:32:47.515Z,96527.81
2023-01-29T17:35:15.047Z,96522.41
2023-01-29T17:37:41.905Z,96533.84
2023-01-29T17:40:18.093Z,96531.22
2023-01-29T17:42:44.666Z,96532.88
2023-01-29T17:45:11.111Z,96537.06
2023-01-29T17:47:37.614Z,96532.88
2023-01-29T17:50:14.525Z,96528.72
2023-01-29T17:52:40.981Z,96528.72
2023-01-29T17:55:08.470Z,96532.09
2023-01-29T17:57:34.889Z,96536.19
2023-01-29T18:00:01.311Z,96537.03
2023-01-29T18:02:29.460Z,96542.44
2023-01-29T18:04:56.492Z,96532.03
2023-01-29T18:07:22.944Z,96537.56
2023-01-29T18:09:49.330Z,96547.69
2023-01-29T18:12:15.741Z,96543.59
2023-01-29T18:14:42.134Z,96541.69
2023-01-29T18:17:08.558Z,96539.00
2023-01-29T18:19:34.966Z,96536.72
2023-01-29T18:22:01.453Z,96548.22
2023-01-29T18:24:27.973Z,96539.38
2023-01-29T18:26:54.400Z,96551.94
2023-01-29T18:29:20.927Z,96548.44
2023-01-29T18:31:48.313Z,96550.56
2023-01-29T18:34:14.755Z,96536.84
2023-01-29T18:36:46.541Z,96552.25
2023-01-29T18:39:13.601Z,96547.91
2023-01-29T18:41:40.027Z,96546.91
2023-01-29T18:44:06.548Z,96548.75
2023-01-29T18:46:33.475Z,96539.13
2023-01-29T18:48:59.896Z,96537.84
2023-01-29T18:51:26.330Z,96542.94
2023-01-29T18:53:52.836Z,96529.41
2023-01-29T18:56:19.277Z,96534.69
2023-01-29T18:58:52.245Z,96527.41
2023-01-29T19:01:22.188Z,96524.38
2023-01-29T19:03:48.733Z,96528.59
2023-01-29T19:06:15.186Z,96529.06
2023-01-29T19:08:42.878Z,96526.34
2023-01-29T19:11:09.659Z,96530.13
2023-01-29T19:13:36.657Z,96528.19
2023-01-29T19:16:05.926Z,96526.63
2023-01-29T19:18:32.677Z,96528.34
2023-01-29T19:20:59.082Z,96522.34
2023-01-29T19:23:25.496Z,96517.06
2023-01-29T19:25:51.928Z,96514.44
2023-01-29T19:28:18.565Z,96517.47
2023-01-29T19:30:45.011Z,96517.13
2023-01-29T19:33:11.517Z,96516.75
2023-01-29T19:35:38.318Z,96513.38
2023-01-29T19:38:04.802Z,96505.63
2023-01-29T19:40:31.338Z,96510.16
2023-01-29T19:42:58.394Z,96502.16
2023-01-29T19:45:49.213Z,96503.28
2023-01-29T19:48:14.468Z,96502.72
2023-01-29T19:50:41.099Z,96501.56
2023-01-29T19:53:07.509Z,96500.97
2023-01-29T19:55:33.922Z,96504.63
2023-01-29T19:58:00.576Z,96509.66
2023-01-29T20:00:27.046Z,96504.22
2023-01-29T20:02:53.466Z,96509.31
2023-01-29T20:05:20.406Z,96514.34
2023-01-29T20:07:47.211Z,96512.06
2023-01-29T20:10:17.401Z,96520.91
2023-01-29T20:12:44.959Z,96527.28
2023-01-29T20:15:11.857Z,96517.06
2023-01-29T20:17:38.255Z,96533.38
2023-01-29T20:20:05.821Z,96520.63
2023-01-29T20:22:32.701Z,96521.56
2023-01-29T20:24:59.179Z,96531.59
2023-01-29T20:27:25.746Z,96532.84
2023-01-29T20:29:52.698Z,96536.00
2023-01-29T20:32:19.359Z,96535.03
2023-01-29T20:34:49.720Z,96535.63
2023-01-29T20:37:16.159Z,96546.84
2023-01-29T20:39:42.610Z,96542.69
2023-01-29T20:42:09.052Z,96543.41
2023-01-29T20:44:35.563Z,96545.19
2023-01-29T20:47:02.650Z,96541.81
2023-01-29T20:49:29.256Z,96543.00
2023-01-29T20:51:55.685Z,96544.34
2023-01-29T20:54:22.250Z,96552.47
2023-01-29T20:56:48.968Z,96539.41
2023-01-29T20:59:15.839Z,96543.63
2023-01-29T21:01:43.198Z,96535.03
2023-01-29T21:04:09.692Z,96528.41
2023-01-29T21:06:36.132Z,96531.50
2023-01-29T21:09:02.755Z,96523.44
2023-01-29T21:11:29.199Z,96513.31
2023-01-29T21:13:57.794Z,96511.41
2023-01-29T21:16:26.166Z,96509.94
2023-01-29T21:18:56.777Z,96511.84
2023-01-29T21:21:23.368Z,96505.53
2023-01-29T21:23:49.847Z,96508.81
2023-01-29T21:26:16.316Z,96512.28
2023-01-29T21:28:42.850Z,96503.84
2023-01-29T21:31:10.168Z,96492.44
2023-01-29T21:33:37.382Z,96487.81
2023-01-29T21:36:04.589Z,96484.81
2023-01-29T21:38:31.180Z,96482.78
2023-01-29T21:41:01.726Z,96484.97
2023-01-29T21:43:28.211Z,96482.53
2023-01-29T21:45:58.589Z,96473.03
2023-01-29T21:48:26.035Z,96475.81
2023-01-29T21:50:52.692Z,96473.94
2023-01-29T21:53:19.165Z,96478.25
2023-01-29T21:55:45.876Z,96480.09
2023-01-29T21:58:14.404Z,96478.03
2023-01-29T22:00:41.127Z,96477.78
2023-01-29T22:03:07.713Z,96482.75
2023-01-29T22:05:34.097Z,96475.44
2023-01-29T22:08:00.738Z,96477.31
2023-01-29T22:10:28.506Z,96476.38
2023-01-29T22:12:55.232Z,96477.69
2023-01-29T22:15:23.714Z,96469.88
2023-01-29T22:17:50.799Z,96474.72
2023-01-29T22:20:17.979Z,96473.47
2023-01-29T22:22:44.537Z,96468.63
2023-01-29T22:25:10.995Z,96472.09
2023-01-29T22:27:37.794Z,96467.59
2023-01-29T22:30:04.844Z,96470.56
2023-01-29T22:32:31.633Z,96467.19
2023-01-29T22:34:58.329Z,96468.38
2023-01-29T22:37:24.771Z,96459.69
2023-01-29T22:39:51.213Z,96448.72
2023-01-29T22:42:18.786Z,96444.13
2023-01-29T22:44:45.568Z,96442.00
2023-01-29T22:47:12.280Z,96448.44
2023-01-29T22:49:38.841Z,96439.94
2023-01-29T22:52:11.404Z,96434.66
2023-01-29T22:54:38.780Z,96441.75
2023-01-29T22:57:05.576Z,96444.19
2023-01-29T22:59:32.413Z,96439.03
2023-01-29T23:01:58.892Z,96441.75
2023-01-29T23:04:25.417Z,96436.97
2023-01-29T23:06:51.861Z,96442.41
2023-01-29T23:09:18.304Z,96441.19
2023-01-29T23:11:44.802Z,96431.06
2023-01-29T23:14:11.226Z,96436.47
2023-01-29T23:16:37.733Z,96427.47
2023-01-29T23:19:04.312Z,96423.94
2023-01-29T23:21:30.786Z,96417.97
2023-01-29T23:23:59.263Z,96410.22
2023-01-29T23:26:44.772Z,96412.97
2023-01-29T23:29:11.646Z,96417.22
2023-01-29T23:31:38.350Z,96411.03
2023-01-29T23:34:04.902Z,96398.59
2023-01-29T23:36:31.335Z,96387.03
2023-01-29T23:38:57.798Z,96378.06
2023-01-29T23:41:24.251Z,96369.22
2023-01-29T23:43:52.625Z,96376.34
2023-01-29T23:46:19.188Z,96371.78
2023-01-29T23:48:45.598Z,96363.91
2023-01-29T23:51:12.732Z,96364.97
2023-01-29T23:53:39.201Z,96361.59
2023-01-29T23:56:05.909Z,96351.91
2023-01-29T23:58:33.291Z,96350.78
